Dades meteomassalio
Diari Summary for Juliol 6, 2017 Units:  Metric    English   Both
« Previous Day
Next Day »
Diari Semanal Mensual Anual Personalitzat
  Maxima: Minima: Mijana:
Temperatura: 35.8 °C 21.3 °C 27.3 °C
Rosada: 18.6 °C 12.8 °C 16.4 °C
Humitat: 79 % 26 % 54 %
Velocitat del vent: 74.0 km/h 0.0 km/h 5.8 km/h
Racha vent: 74.0 km/h - -
Vent:- - SSE
Pressio: 1018.2 hPa 1014.1 hPa -
Pluja: 0.0 mm    
Historical Graphs
 
 
Tabular Data for Juliol 6, 2017
Time Temperature Dew Point Pressure Wind Wind Speed Wind Gust Humidity Rainfall Rate (Hourly) solar Conditions
00:02 25.1 °C 14.8 °C 1014.8 hPa ESE 9.3 km/h 9.3 km/h 53 % 0.0 mm 0.0 W/m2 CLR
00:07 25.0 °C 15.1 °C 1014.8 hPa ESE 9.7 km/h 9.7 km/h 54 % 0.0 mm 0.0 W/m2 CLR
00:12 24.8 °C 14.9 °C 1014.8 hPa East 7.4 km/h 7.4 km/h 54 % 0.0 mm 0.0 W/m2 CLR
00:17 24.7 °C 15.0 °C 1014.8 hPa Calm     55 % 0.0 mm 0.0 W/m2 CLR
00:22 24.4 °C 14.8 °C 1014.8 hPa Calm     55 % 0.0 mm 0.0 W/m2 CLR
00:27 24.5 °C 14.9 °C 1014.8 hPa East 3.7 km/h   55 % 0.0 mm 0.0 W/m2 CLR
00:32 24.6 °C 14.9 °C 1014.8 hPa Calm     55 % 0.0 mm 0.0 W/m2 CLR
00:37 24.7 °C 15.1 °C 1014.4 hPa ESE 7.4 km/h 7.4 km/h 55 % 0.0 mm 0.0 W/m2 CLR
00:42 24.8 °C 15.1 °C 1014.8 hPa East 5.6 km/h 5.6 km/h 55 % 0.0 mm 0.0 W/m2 CLR
00:47 24.7 °C 15.1 °C 1014.8 hPa ENE 7.4 km/h 7.4 km/h 55 % 0.0 mm 0.0 W/m2 CLR
00:52 24.6 °C 15.2 °C 1014.8 hPa ENE 5.6 km/h 5.6 km/h 56 % 0.0 mm 0.0 W/m2 CLR
00:57 24.6 °C 15.2 °C 1015.1 hPa East 6.4 km/h 6.4 km/h 56 % 0.0 mm 0.0 W/m2 CLR
01:02 24.7 °C 15.3 °C 1015.1 hPa ESE 11.1 km/h 11.1 km/h 56 % 0.0 mm 0.0 W/m2 CLR
01:07 24.7 °C 15.3 °C 1015.1 hPa East 13.0 km/h 13.0 km/h 56 % 0.0 mm 0.0 W/m2 CLR
01:12 24.6 °C 15.5 °C 1015.8 hPa ENE 8.0 km/h 8.0 km/h 57 % 0.0 mm 0.0 W/m2 CLR
01:17 24.5 °C 15.7 °C 1015.8 hPa ENE 5.6 km/h   58 % 0.0 mm 0.0 W/m2 CLR
01:22 24.4 °C 15.4 °C 1015.8 hPa Calm     57 % 0.0 mm 0.0 W/m2 CLR
01:32 24.8 °C 14.8 °C 1016.5 hPa Calm     54 % 0.0 mm 0.0 W/m2 CLR
01:37 24.8 °C 15.4 °C 1016.5 hPa NW 11.3 km/h 11.3 km/h 56 % 0.0 mm 0.0 W/m2 CLR
01:42 24.5 °C 15.4 °C 1016.5 hPa NNW 9.3 km/h 9.3 km/h 57 % 0.0 mm 0.0 W/m2 CLR
01:47 24.4 °C 15.1 °C 1016.5 hPa Calm     56 % 0.0 mm 0.0 W/m2 CLR
01:52 24.3 °C 15.6 °C 1016.8 hPa Calm     58 % 0.0 mm 0.0 W/m2 CLR
01:57 24.2 °C 15.7 °C 1016.8 hPa Calm     59 % 0.0 mm 0.0 W/m2 CLR
02:02 24.0 °C 15.8 °C 1016.5 hPa Calm     60 % 0.0 mm 0.0 W/m2 CLR
02:07 23.9 °C 16.2 °C 1016.1 hPa Calm     62 % 0.0 mm 0.0 W/m2 CLR
02:12 23.8 °C 16.6 °C 1016.1 hPa Calm     64 % 0.0 mm 0.0 W/m2 CLR
02:17 23.7 °C 16.9 °C 1016.1 hPa Calm     66 % 0.0 mm 0.0 W/m2 CLR
02:22 23.5 °C 17.0 °C 1016.1 hPa Calm     67 % 0.0 mm 0.0 W/m2 CLR
02:27 23.3 °C 17.3 °C 1016.1 hPa Calm     69 % 0.0 mm 0.0 W/m2 CLR
02:32 23.1 °C 17.6 °C 1016.5 hPa Calm     71 % 0.0 mm 0.0 W/m2 CLR
02:37 23.0 °C 17.4 °C 1016.1 hPa Calm     71 % 0.0 mm 0.0 W/m2 CLR
02:42 22.9 °C 17.4 °C 1016.1 hPa Calm     71 % 0.0 mm 0.0 W/m2 CLR
02:47 22.9 °C 17.4 °C 1015.8 hPa Calm     71 % 0.0 mm 0.0 W/m2 CLR
02:52 22.9 °C 17.4 °C 1015.5 hPa Calm     71 % 0.0 mm 0.0 W/m2 CLR
02:57 22.8 °C 17.5 °C 1014.8 hPa Calm   0.3 km/h 72 % 0.0 mm 0.0 W/m2 CLR
03:03 22.7 °C 17.6 °C 1014.8 hPa East 5.6 km/h 5.6 km/h 73 % 0.0 mm 0.0 W/m2 CLR
03:08 22.7 °C 17.8 °C 1014.8 hPa ENE 5.6 km/h 5.6 km/h 74 % 0.0 mm 0.0 W/m2 CLR
03:13 22.7 °C 17.8 °C 1015.1 hPa East 11.3 km/h 11.3 km/h 74 % 0.0 mm 0.0 W/m2 CLR
03:18 22.7 °C 17.8 °C 1015.1 hPa NE 5.6 km/h 5.6 km/h 74 % 0.0 mm 0.0 W/m2 CLR
03:23 22.6 °C 17.7 °C 1015.1 hPa Calm     74 % 0.0 mm 0.0 W/m2 CLR
03:28 22.6 °C 17.7 °C 1014.8 hPa Calm     74 % 0.0 mm 0.0 W/m2 CLR
03:33 22.6 °C 17.9 °C 1014.8 hPa Calm     75 % 0.0 mm 0.0 W/m2 CLR
03:38 22.5 °C 17.8 °C 1014.8 hPa Calm     75 % 0.0 mm 0.0 W/m2 CLR
03:43 22.5 °C 17.8 °C 1014.8 hPa Calm     75 % 0.0 mm 0.0 W/m2 CLR
03:48 22.4 °C 17.8 °C 1014.4 hPa East 5.6 km/h 5.6 km/h 75 % 0.0 mm 0.0 W/m2 CLR
03:53 22.4 °C 17.6 °C 1014.1 hPa Calm     74 % 0.0 mm 0.0 W/m2 CLR
03:58 22.4 °C 17.6 °C 1014.4 hPa Calm     74 % 0.0 mm 0.0 W/m2 CLR
04:03 22.4 °C 17.5 °C 1014.4 hPa Calm     74 % 0.0 mm 0.0 W/m2 CLR
04:08 22.3 °C 17.4 °C 1014.4 hPa Calm     74 % 0.0 mm 0.0 W/m2 CLR
04:13 22.3 °C 17.4 °C 1014.4 hPa Calm     74 % 0.0 mm 0.0 W/m2 CLR
04:18 22.2 °C 17.4 °C 1014.8 hPa Calm     74 % 0.0 mm 0.0 W/m2 CLR
04:23 22.2 °C 17.4 °C 1014.4 hPa Calm     74 % 0.0 mm 0.0 W/m2 CLR
04:28 22.2 °C 17.4 °C 1014.8 hPa Calm     74 % 0.0 mm 0.0 W/m2 CLR
04:33 22.2 °C 17.4 °C 1014.8 hPa Calm     74 % 0.0 mm 0.0 W/m2 CLR
04:38 22.3 °C 17.4 °C 1014.4 hPa Calm     74 % 0.0 mm 0.0 W/m2 CLR
04:43 22.3 °C 17.4 °C 1014.4 hPa Calm     74 % 0.0 mm 0.0 W/m2 CLR
04:48 22.3 °C 17.4 °C 1014.4 hPa Calm     74 % 0.0 mm 0.0 W/m2 CLR
04:53 22.2 °C 17.4 °C 1014.4 hPa Calm     74 % 0.0 mm 0.0 W/m2 CLR
04:58 22.2 °C 17.5 °C 1014.4 hPa Calm     75 % 0.0 mm 0.0 W/m2 CLR
05:03 22.1 °C 17.4 °C 1014.8 hPa Calm     75 % 0.0 mm 0.0 W/m2 CLR
05:08 22.0 °C 17.6 °C 1014.8 hPa Calm     76 % 0.0 mm 0.0 W/m2 CLR
05:13 21.9 °C 17.5 °C 1015.1 hPa Calm     76 % 0.0 mm 0.0 W/m2 CLR
05:18 21.9 °C 17.4 °C 1015.1 hPa Calm     76 % 0.0 mm 0.0 W/m2 CLR
05:23 21.8 °C 17.4 °C 1015.1 hPa Calm     76 % 0.0 mm 0.0 W/m2 CLR
05:28 21.8 °C 17.3 °C 1015.1 hPa Calm     76 % 0.0 mm 0.0 W/m2 CLR
05:33 21.8 °C 17.6 °C 1015.1 hPa Calm     77 % 0.0 mm 0.0 W/m2 CLR
05:38 21.7 °C 17.5 °C 1015.5 hPa Calm     77 % 0.0 mm 0.0 W/m2 CLR
05:43 21.6 °C 17.2 °C 1015.1 hPa Calm     76 % 0.0 mm 0.0 W/m2 CLR
05:48 21.5 °C 17.3 °C 1015.1 hPa Calm     77 % 0.0 mm 0.0 W/m2 CLR
05:53 21.5 °C 17.3 °C 1015.5 hPa Calm     77 % 0.0 mm 0.0 W/m2 CLR
05:58 21.6 °C 17.2 °C 1015.5 hPa SW 8.0 km/h 8.0 km/h 76 % 0.0 mm 0.0 W/m2 CLR
06:03 21.6 °C 17.3 °C 1015.1 hPa Calm     77 % 0.0 mm 0.0 W/m2 CLR
06:08 21.6 °C 17.2 °C 1015.1 hPa Calm     76 % 0.0 mm 0.0 W/m2 CLR
06:13 21.7 °C 17.3 °C 1015.1 hPa Calm     76 % 0.0 mm 0.0 W/m2 CLR
06:18 21.7 °C 17.3 °C 1015.1 hPa Calm     76 % 0.0 mm 0.0 W/m2 CLR
06:23 21.6 °C 17.2 °C 1015.1 hPa Calm     76 % 0.0 mm 0.0 W/m2 OVC
06:28 21.6 °C 17.2 °C 1015.1 hPa Calm     76 % 0.0 mm 0.0 W/m2 OVC
06:33 21.5 °C 17.3 °C 1015.1 hPa Calm     77 % 0.0 mm 0.0 W/m2 OVC
06:38 21.4 °C 17.4 °C 1015.5 hPa West 5.6 km/h 5.6 km/h 78 % 0.0 mm 0.0 W/m2 OVC
06:43 21.3 °C 17.6 °C 1015.5 hPa Calm     79 % 0.0 mm 0.0 W/m2 OVC
06:48 21.3 °C 17.6 °C 1015.5 hPa Calm     79 % 0.0 mm 0.0 W/m2 OVC
06:53 21.3 °C 17.6 °C 1015.5 hPa Calm     79 % 0.0 mm 5.0 W/m2 OVC
06:58 21.4 °C 17.6 °C 1015.8 hPa Calm     79 % 0.0 mm 7.0 W/m2 BKN
07:03 21.4 °C 17.6 °C 1015.5 hPa Calm     79 % 0.0 mm 9.0 W/m2 BKN
07:08 21.4 °C 17.6 °C 1015.8 hPa WSW 6.4 km/h 6.4 km/h 79 % 0.0 mm 12.0 W/m2 BKN
07:13 21.6 °C 17.3 °C 1015.8 hPa WSW 5.6 km/h 5.6 km/h 77 % 0.0 mm 14.0 W/m2 BKN
07:18 21.8 °C 17.4 °C 1016.5 hPa NW 7.4 km/h 7.4 km/h 76 % 0.0 mm 16.0 W/m2 BKN
07:28 22.4 °C 16.9 °C 1016.5 hPa North 1.9 km/h   71 % 0.0 mm 40.0 W/m2 BKN
07:33 22.7 °C 16.9 °C 1017.2 hPa NW 16.7 km/h 16.7 km/h 70 % 0.0 mm 58.0 W/m2 SCT
07:35 22.8 °C 17.0 °C 1016.8 hPa WNW 5.6 km/h 5.6 km/h 70 % 0.0 mm 63.0 W/m2 SCT
07:40 22.8 °C 17.1 °C 1017.5 hPa Calm     70 % 0.0 mm 54.0 W/m2 SCT
07:45 22.9 °C 17.1 °C 1017.2 hPa Calm     70 % 0.0 mm 53.0 W/m2 SCT
07:50 22.9 °C 17.3 °C 1017.8 hPa WNW 14.8 km/h 14.8 km/h 71 % 0.0 mm 69.0 W/m2 SCT
07:55 22.8 °C 17.5 °C 1017.8 hPa WNW 9.7 km/h 9.7 km/h 72 % 0.0 mm 88.0 W/m2 FEW
08:00 22.8 °C 17.5 °C 1017.8 hPa Calm     72 % 0.0 mm 102.0 W/m2 FEW
08:05 22.9 °C 17.6 °C 1017.8 hPa Calm     72 % 0.0 mm 118.0 W/m2 CLR
08:10 23.0 °C 17.7 °C 1018.2 hPa Calm     72 % 0.0 mm 149.0 W/m2 CLR
08:15 23.3 °C 17.7 °C 1017.8 hPa Calm     71 % 0.0 mm 218.0 W/m2 CLR
08:20 23.5 °C 17.7 °C 1018.2 hPa West 7.4 km/h 7.4 km/h 70 % 0.0 mm 214.0 W/m2 CLR
08:25 23.7 °C 17.9 °C 1017.8 hPa West 9.3 km/h 9.3 km/h 70 % 0.0 mm 295.0 W/m2 CLR
08:30 23.9 °C 17.8 °C 1017.5 hPa Calm     69 % 0.0 mm 309.0 W/m2 CLR
08:35 24.2 °C 17.9 °C 1017.5 hPa Calm     68 % 0.0 mm 304.0 W/m2 CLR
08:40 24.6 °C 18.0 °C 1017.5 hPa Calm     67 % 0.0 mm 281.0 W/m2 CLR
08:45 24.9 °C 18.1 °C 1017.5 hPa Calm     66 % 0.0 mm 281.0 W/m2 CLR
08:50 25.1 °C 17.8 °C 1017.5 hPa Calm     64 % 0.0 mm 209.0 W/m2 CLR
08:55 25.1 °C 17.6 °C 1017.5 hPa SSW 6.4 km/h 6.4 km/h 63 % 0.0 mm 132.0 W/m2 CLR
09:00 25.2 °C 17.4 °C 1017.5 hPa SW 9.3 km/h 9.3 km/h 62 % 0.0 mm 142.0 W/m2 CLR
09:05 25.2 °C 17.4 °C 1017.5 hPa Calm     62 % 0.0 mm 163.0 W/m2 CLR
09:10 25.3 °C 17.3 °C 1017.5 hPa SSW 11.1 km/h 11.1 km/h 61 % 0.0 mm 174.0 W/m2 CLR
09:15 25.6 °C 17.2 °C 1017.5 hPa SW 9.3 km/h 9.3 km/h 60 % 0.0 mm 172.0 W/m2 CLR
09:20 25.7 °C 17.4 °C 1017.5 hPa SSW 7.4 km/h 7.4 km/h 60 % 0.0 mm 188.0 W/m2 CLR
09:25 25.9 °C 17.0 °C 1017.5 hPa SW 5.6 km/h 5.6 km/h 58 % 0.0 mm 218.0 W/m2 CLR
09:30 26.2 °C 17.0 °C 1017.5 hPa SW 1.9 km/h 1.9 km/h 57 % 0.0 mm 221.0 W/m2 CLR
09:35 26.4 °C 17.2 °C 1017.2 hPa Calm     57 % 0.0 mm 218.0 W/m2 CLR
09:40 26.8 °C 17.0 °C 1017.2 hPa Calm     55 % 0.0 mm 264.0 W/m2 CLR
09:45 27.1 °C 16.7 °C 1017.2 hPa Calm     53 % 0.0 mm 255.0 W/m2 CLR
09:50 27.4 °C 16.7 °C 1017.2 hPa Calm     52 % 0.0 mm 251.0 W/m2 CLR
09:55 27.7 °C 16.7 °C 1017.2 hPa Calm     51 % 0.0 mm 288.0 W/m2 CLR
10:00 28.2 °C 15.8 °C 1017.2 hPa Calm     47 % 0.0 mm 603.0 W/m2 CLR
10:05 28.5 °C 15.8 °C 1017.2 hPa Calm     46 % 0.0 mm 281.0 W/m2 CLR
10:15 29.1 °C 15.6 °C 1017.2 hPa Calm     44 % 0.0 mm 626.0 W/m2 CLR
10:20 29.4 °C 15.6 °C 1016.8 hPa Calm     43 % 0.0 mm 747.0 W/m2 CLR
10:25 29.7 °C 15.4 °C 1016.8 hPa Calm     42 % 0.0 mm 397.0 W/m2 CLR
10:30 30.0 °C 14.9 °C 1016.8 hPa NW 5.6 km/h   40 % 0.0 mm 345.0 W/m2 CLR
10:35 30.3 °C 16.7 °C 1016.8 hPa NE 5.6 km/h 5.6 km/h 44 % 0.0 mm 278.0 W/m2 CLR
10:40 30.1 °C 16.8 °C 1016.8 hPa NE 14.8 km/h 14.8 km/h 45 % 0.0 mm 285.0 W/m2 CLR
10:45 29.5 °C 17.7 °C 1016.8 hPa NE 16.7 km/h 16.7 km/h 49 % 0.0 mm 330.0 W/m2 CLR
10:50 29.3 °C 17.8 °C 1016.8 hPa ENE 11.1 km/h 11.1 km/h 50 % 0.0 mm 594.0 W/m2 CLR
10:57 29.6 °C 18.1 °C 1016.8 hPa NE 11.1 km/h 11.1 km/h 50 % 0.0 mm 675.0 W/m2 CLR
11:02 29.8 °C 17.9 °C 1016.5 hPa NE 11.1 km/h 11.1 km/h 49 % 0.0 mm 684.0 W/m2 CLR
11:03 29.9 °C 18.0 °C 1016.5 hPa East 9.3 km/h 9.3 km/h 49 % 0.0 mm 686.0 W/m2 CLR
11:07 30.0 °C 17.4 °C 1016.5 hPa NE 9.3 km/h 9.3 km/h 47 % 0.0 mm 705.0 W/m2 CLR
11:12 29.9 °C 17.1 °C 1016.5 hPa East 5.6 km/h 5.6 km/h 46 % 0.0 mm 752.0 W/m2 CLR
11:14 30.1 °C 17.5 °C 1016.5 hPa ENE 4.8 km/h 4.8 km/h 47 % 0.0 mm 686.0 W/m2 CLR
11:15 30.1 °C 17.2 °C 1016.5 hPa ENE 6.4 km/h 6.4 km/h 46 % 0.0 mm 366.0 W/m2 CLR
11:19 30.2 °C 16.9 °C 1016.5 hPa Calm     45 % 0.0 mm 578.0 W/m2 CLR
11:20 30.2 °C 16.9 °C 1016.5 hPa Calm     45 % 0.0 mm 624.0 W/m2 CLR
11:21 30.3 °C 16.7 °C 1016.5 hPa Calm     44 % 0.0 mm 624.0 W/m2 CLR
11:23 30.4 °C 16.8 °C 1016.5 hPa Calm     44 % 0.0 mm 619.0 W/m2 CLR
11:24 30.4 °C 16.8 °C 1016.5 hPa Calm     44 % 0.0 mm 599.0 W/m2 CLR
11:27 30.6 °C 16.9 °C 1016.5 hPa Calm     44 % 0.0 mm 487.0 W/m2 CLR
11:28 30.6 °C 16.6 °C 1016.5 hPa Calm     43 % 0.0 mm 450.0 W/m2 CLR
11:29 30.6 °C 16.6 °C 1016.1 hPa Calm     43 % 0.0 mm 366.0 W/m2 CLR
11:31 30.5 °C 16.5 °C 1016.1 hPa ENE 3.7 km/h 3.7 km/h 43 % 0.0 mm 299.0 W/m2 CLR
11:32 30.5 °C 16.1 °C 1016.1 hPa ENE 1.9 km/h 1.9 km/h 42 % 0.0 mm 299.0 W/m2 CLR
11:37 30.3 °C 15.6 °C 1015.8 hPa Calm     41 % 0.0 mm 250.0 W/m2 CLR
11:42 30.1 °C 15.7 °C 1015.8 hPa Calm     42 % 0.0 mm 269.0 W/m2 CLR
11:47 30.1 °C 15.8 °C 1015.8 hPa Calm     42 % 0.0 mm 378.0 W/m2 CLR
11:52 30.4 °C 16.1 °C 1016.1 hPa Calm     42 % 0.0 mm 636.0 W/m2 CLR
11:57 30.8 °C 15.6 °C 1016.1 hPa Calm     40 % 0.0 mm 591.0 W/m2 CLR
11:58 30.8 °C 15.3 °C 1016.1 hPa Calm     39 % 0.0 mm 591.0 W/m2 CLR
12:03 31.2 °C 14.8 °C 1016.1 hPa Calm     37 % 0.0 mm 563.0 W/m2 CLR
12:08 31.4 °C 14.6 °C 1016.1 hPa Calm     36 % 0.0 mm 343.0 W/m2 CLR
12:13 31.6 °C 14.3 °C 1016.1 hPa Calm     35 % 0.0 mm 432.0 W/m2 CLR
12:18 31.8 °C 14.4 °C 1016.1 hPa SE 9.7 km/h 9.7 km/h 35 % 0.0 mm 550.0 W/m2 CLR
12:23 31.8 °C 14.5 °C 1016.1 hPa East 12.9 km/h 12.9 km/h 35 % 0.0 mm 624.0 W/m2 CLR
12:28 31.7 °C 14.8 °C 1015.8 hPa ENE 3.2 km/h 3.2 km/h 36 % 0.0 mm 564.0 W/m2 CLR
12:33 31.8 °C 14.5 °C 1015.8 hPa East 9.3 km/h 9.3 km/h 35 % 0.0 mm 687.0 W/m2 CLR
12:38 32.2 °C 15.3 °C 1015.8 hPa ESE 1.9 km/h 1.9 km/h 36 % 0.0 mm 540.0 W/m2 CLR
12:43 32.6 °C 14.7 °C 1015.8 hPa SE 16.7 km/h 16.7 km/h 34 % 0.0 mm 895.0 W/m2 CLR
12:48 32.6 °C 14.2 °C 1015.8 hPa South 9.3 km/h 9.3 km/h 33 % 0.0 mm 540.0 W/m2 CLR
12:53 32.4 °C 14.1 °C 1015.8 hPa ESE 14.8 km/h 14.8 km/h 33 % 0.0 mm 290.0 W/m2 CLR
12:58 32.2 °C 13.9 °C 1015.8 hPa SE 11.3 km/h 11.3 km/h 33 % 0.0 mm 214.0 W/m2 CLR
13:03 32.1 °C 13.3 °C 1016.1 hPa SE 6.4 km/h 6.4 km/h 32 % 0.0 mm 167.0 W/m2 CLR
13:08 31.9 °C 13.2 °C 1015.8 hPa ESE 11.1 km/h 11.1 km/h 32 % 0.0 mm 227.0 W/m2 CLR
13:13 32.0 °C 13.2 °C 1015.8 hPa SE 9.3 km/h 9.3 km/h 32 % 0.0 mm 290.0 W/m2 CLR
13:18 32.0 °C 13.7 °C 1015.8 hPa Calm     33 % 0.0 mm 244.0 W/m2 CLR
13:23 32.1 °C 13.3 °C 1015.5 hPa ENE 5.6 km/h 5.6 km/h 32 % 0.0 mm 251.0 W/m2 CLR
13:28 32.2 °C 13.4 °C 1015.5 hPa ENE 1.9 km/h   32 % 0.0 mm 327.0 W/m2 CLR
13:33 32.3 °C 13.6 °C 1015.1 hPa ENE 1.9 km/h 1.9 km/h 32 % 0.0 mm 371.0 W/m2 CLR
13:38 32.5 °C 13.7 °C 1015.1 hPa East 7.4 km/h 7.4 km/h 32 % 0.0 mm 381.0 W/m2 CLR
13:43 32.4 °C 13.1 °C 1015.1 hPa East 9.3 km/h 9.3 km/h 31 % 0.0 mm 452.0 W/m2 CLR
13:48 32.4 °C 13.1 °C 1015.1 hPa SE 5.6 km/h 5.6 km/h 31 % 0.0 mm 575.0 W/m2 CLR
13:53 32.6 °C 12.8 °C 1015.1 hPa East 9.3 km/h 9.3 km/h 30 % 0.0 mm 469.0 W/m2 CLR
13:58 32.8 °C 13.5 °C 1015.1 hPa ENE 5.6 km/h   31 % 0.0 mm 782.0 W/m2 CLR
14:03 33.3 °C 14.3 °C 1015.1 hPa East 9.3 km/h 9.3 km/h 32 % 0.0 mm 1011.0 W/m2 CLR
14:08 33.5 °C 15.0 °C 1015.1 hPa East 13.0 km/h 13.0 km/h 33 % 0.0 mm 615.0 W/m2 CLR
14:13 33.6 °C 14.7 °C 1015.1 hPa East 18.5 km/h 18.5 km/h 32 % 0.0 mm 1192.0 W/m2 CLR
14:18 33.7 °C 14.7 °C 1015.1 hPa East 14.8 km/h 14.8 km/h 32 % 0.0 mm 693.0 W/m2 CLR
14:23 33.4 °C 14.5 °C 1015.1 hPa East 20.4 km/h 20.4 km/h 32 % 0.0 mm 881.0 W/m2 CLR
14:28 33.4 °C 14.9 °C 1015.1 hPa ESE 16.1 km/h 16.1 km/h 33 % 0.0 mm 448.0 W/m2 CLR
14:33 33.7 °C 14.2 °C 1015.1 hPa ENE 18.5 km/h 18.5 km/h 31 % 0.0 mm 958.0 W/m2 CLR
14:38 33.7 °C 14.7 °C 1015.1 hPa ESE 20.4 km/h 20.4 km/h 32 % 0.0 mm 965.0 W/m2 CLR
14:43 33.8 °C 15.3 °C 1014.8 hPa East 14.8 km/h 14.8 km/h 33 % 0.0 mm 935.0 W/m2 CLR
14:48 33.9 °C 14.4 °C 1014.8 hPa Calm     31 % 0.0 mm 909.0 W/m2 CLR
14:53 34.1 °C 15.1 °C 1014.8 hPa SE 1.9 km/h 1.9 km/h 32 % 0.0 mm 911.0 W/m2 CLR
14:58 34.2 °C 16.1 °C 1014.8 hPa SSW 7.4 km/h 7.4 km/h 34 % 0.0 mm 895.0 W/m2 CLR
15:03 34.4 °C 15.8 °C 1014.8 hPa ENE 16.7 km/h 16.7 km/h 33 % 0.0 mm 904.0 W/m2 CLR
15:08 34.6 °C 16.0 °C 1014.8 hPa East 8.0 km/h 8.0 km/h 33 % 0.0 mm 911.0 W/m2 CLR
15:13 34.6 °C 15.0 °C 1014.8 hPa East 14.8 km/h 14.8 km/h 31 % 0.0 mm 930.0 W/m2 CLR
15:18 34.6 °C 14.5 °C 1014.8 hPa ESE 14.8 km/h 14.8 km/h 30 % 0.0 mm 958.0 W/m2 CLR
15:23 34.7 °C 14.1 °C 1014.8 hPa Calm     29 % 0.0 mm 972.0 W/m2 CLR
15:28 34.7 °C 14.6 °C 1014.8 hPa East 5.6 km/h 5.6 km/h 30 % 0.0 mm 418.0 W/m2 CLR
15:33 34.9 °C 15.3 °C 1014.8 hPa ENE 1.9 km/h   31 % 0.0 mm 418.0 W/m2 CLR
15:38 35.1 °C 13.8 °C 1014.8 hPa SSE 13.0 km/h 13.0 km/h 28 % 0.0 mm 352.0 W/m2 CLR
15:43 34.8 °C 13.1 °C 1014.8 hPa ESE 13.0 km/h 13.0 km/h 27 % 0.0 mm 434.0 W/m2 CLR
15:48 35.0 °C 13.2 °C 1014.8 hPa ESE 7.4 km/h 7.4 km/h 27 % 0.0 mm 954.0 W/m2 CLR
15:53 35.3 °C 13.5 °C 1014.8 hPa ENE 18.5 km/h 18.5 km/h 27 % 0.0 mm 503.0 W/m2 CLR
15:58 35.2 °C 13.4 °C 1014.4 hPa Calm     27 % 0.0 mm 664.0 W/m2 CLR
16:03 35.4 °C 12.9 °C 1014.8 hPa SSE 13.0 km/h 13.0 km/h 26 % 0.0 mm 838.0 W/m2 CLR
16:08 35.8 °C 13.3 °C 1014.8 hPa ESE 9.3 km/h 9.3 km/h 26 % 0.0 mm 990.0 W/m2 CLR
16:13 35.7 °C 13.2 °C 1014.8 hPa SE 13.0 km/h 13.0 km/h 26 % 0.0 mm 383.0 W/m2 CLR
16:18 35.4 °C 13.0 °C 1014.8 hPa SE 13.0 km/h 13.0 km/h 26 % 0.0 mm 243.0 W/m2 CLR
16:23 35.2 °C 13.4 °C 1014.8 hPa SE 20.9 km/h 20.9 km/h 27 % 0.0 mm 169.0 W/m2 CLR
16:28 34.7 °C 13.6 °C 1015.1 hPa SE 16.7 km/h 16.7 km/h 28 % 0.0 mm 98.0 W/m2 CLR
16:33 34.6 °C 12.9 °C 1015.8 hPa SW 74.0 km/h 74.0 km/h 27 % 0.0 mm 62.0 W/m2 CLR
16:38 30.9 °C 16.8 °C 1016.5 hPa NW 38.9 km/h 38.9 km/h 43 % 0.0 mm 86.0 W/m2 FEW
16:43 28.9 °C 17.8 °C 1016.5 hPa NW 51.5 km/h 51.5 km/h 51 % 0.0 mm 179.0 W/m2 FEW
16:48 27.7 °C 18.4 °C 1016.8 hPa NW 46.3 km/h 46.3 km/h 57 % 0.0 mm 241.0 W/m2 CLR
16:53 27.2 °C 18.5 °C 1017.2 hPa NW 35.2 km/h 35.2 km/h 59 % 0.0 mm 223.0 W/m2 CLR
16:58 27.3 °C 18.6 °C 1016.8 hPa NW 31.5 km/h 31.5 km/h 59 % 0.0 mm 156.0 W/m2 CLR
17:04 27.4 °C 18.4 °C 1016.8 hPa NNW 31.5 km/h 31.5 km/h 58 % 0.0 mm 113.0 W/m2 CLR
17:09 27.5 °C 18.2 °C 1016.8 hPa NW 33.3 km/h 33.3 km/h 57 % 0.0 mm 127.0 W/m2 CLR
17:14 27.5 °C 18.2 °C 1016.8 hPa NW 31.5 km/h 31.5 km/h 57 % 0.0 mm 269.0 W/m2 CLR
17:19 27.8 °C 17.7 °C 1016.5 hPa NW 30.6 km/h 30.6 km/h 54 % 0.0 mm 316.0 W/m2 CLR
17:24 28.0 °C 17.5 °C 1016.5 hPa NNW 31.5 km/h 31.5 km/h 53 % 0.0 mm 292.0 W/m2 CLR
17:29 27.9 °C 17.5 °C 1016.5 hPa NNW 38.9 km/h 38.9 km/h 53 % 0.0 mm 227.0 W/m2 CLR
17:34 27.9 °C 17.5 °C 1016.1 hPa North 20.9 km/h 20.9 km/h 53 % 0.0 mm 255.0 W/m2 CLR
17:39 27.9 °C 17.5 °C 1016.1 hPa NNW 16.7 km/h 16.7 km/h 53 % 0.0 mm 418.0 W/m2 CLR
17:44 28.3 °C 17.5 °C 1016.5 hPa NNW 20.4 km/h 20.4 km/h 52 % 0.0 mm 446.0 W/m2 CLR
17:49 28.5 °C 17.1 °C 1016.8 hPa NNW 22.5 km/h 22.5 km/h 50 % 0.0 mm 302.0 W/m2 CLR
17:54 28.4 °C 17.3 °C 1016.8 hPa NW 20.4 km/h 20.4 km/h 51 % 0.0 mm 710.0 W/m2 CLR
17:59 28.6 °C 17.1 °C 1016.8 hPa NNE 18.5 km/h 18.5 km/h 50 % 0.0 mm 691.0 W/m2 CLR
18:04 28.8 °C 17.3 °C 1016.8 hPa Calm     50 % 0.0 mm 385.0 W/m2 CLR
18:09 28.8 °C 17.4 °C 1016.8 hPa Calm     50 % 0.0 mm 234.0 W/m2 CLR
18:14 28.7 °C 17.3 °C 1016.8 hPa NE 8.0 km/h 8.0 km/h 50 % 0.0 mm 278.0 W/m2 CLR
18:19 28.7 °C 17.3 °C 1016.8 hPa NNE 3.7 km/h 3.7 km/h 50 % 0.0 mm 223.0 W/m2 CLR
18:20 28.7 °C 17.3 °C 1016.8 hPa North 3.7 km/h 3.7 km/h 50 % 0.0 mm 213.0 W/m2 CLR
18:25 28.8 °C 17.0 °C 1016.8 hPa Calm     49 % 0.0 mm 213.0 W/m2 CLR
18:30 28.8 °C 17.1 °C 1016.5 hPa ENE 5.6 km/h 5.6 km/h 49 % 0.0 mm 207.0 W/m2 CLR
18:35 29.0 °C 17.2 °C 1016.5 hPa Calm     49 % 0.0 mm 555.0 W/m2 CLR
18:40 29.2 °C 17.1 °C 1016.1 hPa ENE 11.1 km/h 11.1 km/h 48 % 0.0 mm 338.0 W/m2 CLR
18:45 29.0 °C 16.9 °C 1016.1 hPa Calm     48 % 0.0 mm 181.0 W/m2 CLR
18:50 28.6 °C 16.5 °C 1016.1 hPa ENE 5.6 km/h   48 % 0.0 mm 178.0 W/m2 CLR
18:53 28.5 °C 16.1 °C 1015.8 hPa ENE 5.6 km/h   47 % 0.0 mm 186.0 W/m2 CLR
18:58 28.5 °C 16.4 °C 1015.8 hPa Calm     48 % 0.0 mm 183.0 W/m2 CLR
19:03 28.5 °C 16.4 °C 1015.8 hPa NE 7.4 km/h 7.4 km/h 48 % 0.0 mm 181.0 W/m2 CLR
19:08 28.5 °C 16.4 °C 1015.8 hPa Calm     48 % 0.0 mm 134.0 W/m2 CLR
19:13 28.4 °C 16.7 °C 1015.8 hPa Calm     49 % 0.0 mm 104.0 W/m2 CLR
19:18 28.5 °C 16.4 °C 1015.8 hPa ESE 6.4 km/h 6.4 km/h 48 % 0.0 mm 102.0 W/m2 CLR
19:23 28.4 °C 16.4 °C 1015.8 hPa ESE 5.6 km/h 5.6 km/h 48 % 0.0 mm 109.0 W/m2 CLR
19:28 28.5 °C 16.4 °C 1016.1 hPa Calm     48 % 0.0 mm 123.0 W/m2 CLR
19:33 28.5 °C 16.7 °C 1016.1 hPa SSE 3.2 km/h   49 % 0.0 mm 135.0 W/m2 CLR
19:38 28.6 °C 16.8 °C 1015.8 hPa Calm     49 % 0.0 mm 272.0 W/m2 CLR
19:43 28.6 °C 16.5 °C 1015.8 hPa SE 7.4 km/h 7.4 km/h 48 % 0.0 mm 237.0 W/m2 CLR
19:48 28.6 °C 16.5 °C 1016.1 hPa ESE 5.6 km/h 5.6 km/h 48 % 0.0 mm 221.0 W/m2 CLR
19:53 28.7 °C 16.6 °C 1016.1 hPa SE 5.6 km/h 5.6 km/h 48 % 0.0 mm 211.0 W/m2 CLR
19:58 28.7 °C 16.3 °C 1015.8 hPa Calm     47 % 0.0 mm 211.0 W/m2 CLR
20:03 28.8 °C 16.4 °C 1015.8 hPa Calm     47 % 0.0 mm 218.0 W/m2 CLR
20:08 29.0 °C 16.6 °C 1015.8 hPa Calm     47 % 0.0 mm 192.0 W/m2 CLR
20:13 29.1 °C 16.3 °C 1015.5 hPa ESE 16.7 km/h 16.7 km/h 46 % 0.0 mm 139.0 W/m2 CLR
20:18 29.2 °C 16.3 °C 1015.5 hPa ESE 13.0 km/h 13.0 km/h 46 % 0.0 mm 76.0 W/m2 CLR
20:23 29.2 °C 16.4 °C 1015.1 hPa East 16.1 km/h 16.1 km/h 46 % 0.0 mm 69.0 W/m2 FEW
20:28 29.2 °C 16.7 °C 1014.8 hPa ESE 14.8 km/h 14.8 km/h 47 % 0.0 mm 62.0 W/m2 FEW
20:33 29.1 °C 16.7 °C 1014.8 hPa East 11.1 km/h 11.1 km/h 47 % 0.0 mm 53.0 W/m2 SCT
20:38 29.1 °C 16.7 °C 1014.8 hPa Calm     47 % 0.0 mm 53.0 W/m2 SCT
20:43 29.1 °C 16.6 °C 1015.1 hPa Calm     47 % 0.0 mm 40.0 W/m2 BKN
20:48 29.1 °C 16.7 °C 1015.1 hPa ENE 5.6 km/h 5.6 km/h 47 % 0.0 mm 42.0 W/m2 BKN
20:53 29.1 °C 16.6 °C 1014.8 hPa Calm     47 % 0.0 mm 37.0 W/m2 BKN
20:58 29.0 °C 16.9 °C 1015.1 hPa Calm     48 % 0.0 mm 32.0 W/m2 BKN
21:03 28.9 °C 16.8 °C 1015.1 hPa Calm     48 % 0.0 mm 21.0 W/m2 BKN
21:08 28.8 °C 16.7 °C 1014.8 hPa ENE 1.9 km/h   48 % 0.0 mm 16.0 W/m2 BKN
21:13 28.7 °C 16.9 °C 1015.1 hPa Calm     49 % 0.0 mm 11.0 W/m2 BKN
21:18 28.6 °C 16.8 °C 1015.1 hPa Calm     49 % 0.0 mm 7.0 W/m2 BKN
21:23 28.6 °C 16.8 °C 1015.1 hPa East 9.3 km/h 9.3 km/h 49 % 0.0 mm 5.0 W/m2 OVC
21:24 28.5 °C 16.7 °C 1015.1 hPa East 3.7 km/h 3.7 km/h 49 % 0.0 mm 5.0 W/m2 OVC
21:29 28.4 °C 16.9 °C 1015.1 hPa Calm     50 % 0.0 mm 0.0 W/m2 OVC
21:34 28.3 °C 16.9 °C 1015.1 hPa Calm     50 % 0.0 mm 0.0 W/m2 OVC
21:39 28.2 °C 16.8 °C 1015.1 hPa Calm     50 % 0.0 mm 0.0 W/m2 OVC
21:41 28.2 °C 16.8 °C 1015.1 hPa Calm     50 % 0.0 mm 0.0 W/m2 OVC
21:46 28.1 °C 16.9 °C 1015.1 hPa Calm     51 % 0.0 mm 0.0 W/m2 CLR
21:51 27.9 °C 16.9 °C 1015.5 hPa Calm     51 % 0.0 mm 0.0 W/m2 CLR
21:56 27.9 °C 17.1 °C 1015.5 hPa Calm     52 % 0.0 mm 0.0 W/m2 CLR
22:01 27.8 °C 17.0 °C 1015.5 hPa Calm     52 % 0.0 mm 0.0 W/m2 CLR
22:06 27.7 °C 16.9 °C 1015.8 hPa Calm     52 % 0.0 mm 0.0 W/m2 CLR
22:11 27.6 °C 16.9 °C 1015.8 hPa Calm     52 % 0.0 mm 0.0 W/m2 CLR
22:16 27.5 °C 16.8 °C 1015.8 hPa Calm     52 % 0.0 mm 0.0 W/m2 CLR
22:21 27.4 °C 16.9 °C 1015.8 hPa Calm     53 % 0.0 mm 0.0 W/m2 CLR
22:26 27.2 °C 16.8 °C 1015.8 hPa Calm     53 % 0.0 mm 0.0 W/m2 CLR
22:31 27.0 °C 16.9 °C 1015.8 hPa Calm     54 % 0.0 mm 0.0 W/m2 CLR
22:36 26.9 °C 16.8 °C 1016.1 hPa Calm     54 % 0.0 mm 0.0 W/m2 CLR
22:41 26.9 °C 16.8 °C 1016.1 hPa Calm     54 % 0.0 mm 0.0 W/m2 CLR
22:46 26.7 °C 16.7 °C 1016.1 hPa Calm     54 % 0.0 mm 0.0 W/m2 CLR
22:51 26.5 °C 16.7 °C 1016.1 hPa Calm     55 % 0.0 mm 0.0 W/m2 CLR
22:56 26.2 °C 16.4 °C 1016.1 hPa Calm     55 % 0.0 mm 0.0 W/m2 CLR
23:01 25.9 °C 16.8 °C 1016.1 hPa Calm     57 % 0.0 mm 0.0 W/m2 CLR
23:06 25.8 °C 16.3 °C 1016.5 hPa Calm     56 % 0.0 mm 0.0 W/m2 CLR
23:11 25.4 °C 16.5 °C 1016.5 hPa Calm     58 % 0.0 mm 0.0 W/m2 CLR
23:16 25.0 °C 16.2 °C 1016.5 hPa Calm     58 % 0.0 mm 0.0 W/m2 CLR
23:21 24.7 °C 16.1 °C 1016.5 hPa Calm     59 % 0.0 mm 0.0 W/m2 CLR
23:26 24.4 °C 16.1 °C 1016.5 hPa Calm     60 % 0.0 mm 0.0 W/m2 CLR
23:31 24.1 °C 16.1 °C 1016.1 hPa Calm     61 % 0.0 mm 0.0 W/m2 CLR
23:36 24.0 °C 16.3 °C 1016.5 hPa Calm     62 % 0.0 mm 0.0 W/m2 CLR
23:41 23.9 °C 16.2 °C 1016.5 hPa Calm     62 % 0.0 mm 0.0 W/m2 CLR
23:46 23.9 °C 16.4 °C 1016.5 hPa Calm     63 % 0.0 mm 0.0 W/m2 CLR
23:51 23.9 °C 16.2 °C 1016.5 hPa Calm     62 % 0.0 mm 0.0 W/m2 CLR
23:56 23.8 °C 16.1 °C 1016.5 hPa Calm     62 % 0.0 mm 0.0 W/m2 CLR
Lo Temps de Massalio
Compliments of Weather Underground - 1.25 mb